createdAt,value
2023-02-26T00:01:04.085Z,99550.47
2023-02-26T00:03:31.914Z,99547.38
2023-02-26T00:06:01.156Z,99538.41
2023-02-26T00:08:28.921Z,99550.19
2023-02-26T00:10:57.234Z,99552.44
2023-02-26T00:13:25.391Z,99540.50
2023-02-26T00:15:59.748Z,99546.03
2023-02-26T00:18:27.784Z,99547.75
2023-02-26T00:20:56.452Z,99552.84
2023-02-26T00:23:24.802Z,99557.59
2023-02-26T00:25:52.504Z,99563.16
2023-02-26T00:28:20.671Z,99567.59
2023-02-26T00:30:48.879Z,99556.78
2023-02-26T00:33:18.475Z,99564.41
2023-02-26T00:35:46.275Z,99563.28
2023-02-26T00:38:18.034Z,99563.66
2023-02-26T00:40:48.492Z,99565.50
2023-02-26T00:43:18.347Z,99571.06
2023-02-26T00:45:52.362Z,99564.09
2023-02-26T00:48:35.861Z,99561.56
2023-02-26T00:51:11.009Z,99565.69
2023-02-26T00:53:45.513Z,99554.66
2023-02-26T00:56:14.952Z,99570.28
2023-02-26T00:58:42.828Z,99576.91
2023-02-26T01:01:10.612Z,99571.81
2023-02-26T01:03:40.336Z,99567.53
2023-02-26T01:06:12.442Z,99575.00
2023-02-26T01:08:47.846Z,99576.28
2023-02-26T01:11:16.152Z,99576.13
2023-02-26T01:13:44.403Z,99567.25
2023-02-26T01:16:20.832Z,99572.25
2023-02-26T01:18:57.093Z,99564.31
2023-02-26T01:21:31.992Z,99579.31
2023-02-26T01:24:04.388Z,99585.75
2023-02-26T01:26:32.368Z,99581.59
2023-02-26T01:29:00.441Z,99584.00
2023-02-26T01:31:37.218Z,99581.09
2023-02-26T01:34:15.885Z,99589.53
2023-02-26T01:36:52.975Z,99585.72
2023-02-26T01:39:30.212Z,99585.72
2023-02-26T01:42:07.024Z,99580.13
2023-02-26T01:44:42.626Z,99583.75
2023-02-26T01:47:18.460Z,99590.44
2023-02-26T01:49:48.023Z,99580.56
2023-02-26T01:52:57.525Z,99583.75
2023-02-26T01:55:28.222Z,99541.22
2023-02-26T01:57:58.533Z,99579.47
2023-02-26T02:00:26.280Z,99578.53
2023-02-26T02:02:54.560Z,99579.47
2023-02-26T02:05:29.744Z,99574.22
2023-02-26T02:07:58.505Z,99571.19
2023-02-26T02:10:26.164Z,99578.34
2023-02-26T02:13:03.548Z,99575.38
2023-02-26T02:15:41.012Z,99583.16
2023-02-26T02:18:17.399Z,99582.56
2023-02-26T02:21:35.381Z,99580.63
2023-02-26T02:24:08.674Z,99589.03
2023-02-26T02:26:55.942Z,99586.34
2023-02-26T02:29:55.737Z,99587.75
2023-02-26T02:32:28.900Z,99594.31
2023-02-26T02:35:03.943Z,99590.03
2023-02-26T02:37:37.332Z,99597.06
2023-02-26T02:40:12.172Z,99596.63
2023-02-26T02:42:44.888Z,99593.69
2023-02-26T02:45:19.555Z,99595.13
2023-02-26T02:47:53.892Z,99602.19
2023-02-26T02:50:29.336Z,99597.72
2023-02-26T02:53:01.105Z,99601.56
2023-02-26T02:55:34.211Z,99595.63
2023-02-26T02:58:05.868Z,99561.31
2023-02-26T03:00:37.455Z,99599.69
2023-02-26T03:03:16.185Z,99597.00
2023-02-26T03:05:44.376Z,99595.53
2023-02-26T03:08:15.755Z,99605.22
2023-02-26T03:10:47.418Z,99599.59
2023-02-26T03:13:18.172Z,99596.69
2023-02-26T03:16:00.934Z,99605.81
2023-02-26T03:18:42.575Z,99594.69
2023-02-26T03:21:14.423Z,99607.34
2023-02-26T03:23:50.991Z,99596.00
2023-02-26T03:26:27.602Z,99618.75
2023-02-26T03:29:03.780Z,99592.22
2023-02-26T03:31:34.933Z,99614.53
2023-02-26T03:34:10.137Z,99619.00
2023-02-26T03:36:41.767Z,99614.16
2023-02-26T03:39:26.290Z,99617.66
2023-02-26T03:41:59.529Z,99623.03
2023-02-26T03:44:34.668Z,99625.38
2023-02-26T03:47:07.725Z,99626.78
2023-02-26T03:49:45.898Z,99632.00
2023-02-26T03:52:15.205Z,99630.06
2023-02-26T03:54:46.868Z,99635.28
2023-02-26T03:57:35.044Z,99608.34
2023-02-26T04:00:21.926Z,99641.00
2023-02-26T04:03:01.276Z,99650.09
2023-02-26T04:05:34.257Z,99651.41
2023-02-26T04:08:03.094Z,99659.19
2023-02-26T04:10:36.459Z,99660.47
2023-02-26T04:13:04.780Z,99664.25
2023-02-26T04:15:32.528Z,99667.63
2023-02-26T04:18:00.236Z,99655.34
2023-02-26T04:20:30.059Z,99671.75
2023-02-26T04:22:57.694Z,99670.59
2023-02-26T04:25:25.319Z,99671.66
2023-02-26T04:27:54.089Z,99676.63
2023-02-26T04:30:21.904Z,99683.34
2023-02-26T04:32:49.582Z,99673.78
2023-02-26T04:35:18.021Z,99681.75
2023-02-26T04:37:47.081Z,99687.06
2023-02-26T04:40:15.095Z,99689.13
2023-02-26T04:42:43.594Z,99687.94
2023-02-26T04:45:12.373Z,99703.38
2023-02-26T04:47:40.457Z,99694.06
2023-02-26T04:50:09.716Z,99683.56
2023-02-26T04:52:37.457Z,99699.97
2023-02-26T04:55:08.245Z,99699.13
2023-02-26T04:57:39.186Z,99704.09
2023-02-26T05:00:08.278Z,99699.63
2023-02-26T05:02:38.580Z,99707.41
2023-02-26T05:05:07.201Z,99708.56
2023-02-26T05:07:35.167Z,99707.16
2023-02-26T05:10:02.892Z,99717.66
2023-02-26T05:12:31.903Z,99723.41
2023-02-26T05:14:59.552Z,99716.09
2023-02-26T05:17:27.243Z,99719.84
2023-02-26T05:19:54.967Z,99721.00
2023-02-26T05:22:22.608Z,99727.38
2023-02-26T05:24:50.441Z,99731.88
2023-02-26T05:27:18.105Z,99740.50
2023-02-26T05:29:49.089Z,99746.91
2023-02-26T05:32:17.107Z,99742.69
2023-02-26T05:34:45.024Z,99744.09
2023-02-26T05:37:12.667Z,99748.59
2023-02-26T05:39:41.323Z,99751.91
2023-02-26T05:42:09.186Z,99756.09
2023-02-26T05:44:36.840Z,99768.88
2023-02-26T05:47:05.936Z,99770.88
2023-02-26T05:49:34.091Z,99764.06
2023-02-26T05:52:01.916Z,99756.56
2023-02-26T05:54:29.682Z,99771.16
2023-02-26T05:56:57.782Z,99774.94
2023-02-26T05:59:25.627Z,99768.06
2023-02-26T06:01:53.322Z,99780.72
2023-02-26T06:04:22.268Z,99775.53
2023-02-26T06:06:49.928Z,99787.03
2023-02-26T06:09:17.725Z,99786.22
2023-02-26T06:11:45.385Z,99795.22
2023-02-26T06:14:13.079Z,99798.28
2023-02-26T06:16:40.780Z,99803.56
2023-02-26T06:19:08.404Z,99805.91
2023-02-26T06:21:37.380Z,99807.59
2023-02-26T06:24:05.395Z,99817.00
2023-02-26T06:26:33.106Z,99812.09
2023-02-26T06:29:00.876Z,99822.19
2023-02-26T06:31:28.645Z,99824.69
2023-02-26T06:33:56.334Z,99835.97
2023-02-26T06:36:24.213Z,99836.16
2023-02-26T06:38:53.396Z,99837.06
2023-02-26T06:41:21.032Z,99844.97
2023-02-26T06:43:48.629Z,99851.78
2023-02-26T06:46:16.433Z,99848.47
2023-02-26T06:48:44.129Z,99861.34
2023-02-26T06:51:11.843Z,99869.03
2023-02-26T06:53:39.496Z,99874.72
2023-02-26T06:56:08.707Z,99880.22
2023-02-26T06:58:36.423Z,99892.97
2023-02-26T07:01:05.566Z,99890.59
2023-02-26T07:03:33.592Z,99896.38
2023-02-26T07:06:23.719Z,99898.19
2023-02-26T07:08:48.874Z,99906.28
2023-02-26T07:11:17.860Z,99898.44
2023-02-26T07:13:45.428Z,99904.53
2023-02-26T07:16:13.089Z,99899.44
2023-02-26T07:18:41.139Z,99904.94
2023-02-26T07:21:08.872Z,99909.75
2023-02-26T07:23:36.618Z,99909.25
2023-02-26T07:26:04.508Z,99909.53
2023-02-26T07:28:33.490Z,99916.53
2023-02-26T07:31:01.293Z,99916.34
2023-02-26T07:33:29.254Z,99922.56
2023-02-26T07:35:56.842Z,99931.75
2023-02-26T07:38:24.426Z,99925.34
2023-02-26T07:40:52.054Z,99938.16
2023-02-26T07:43:19.670Z,99944.13
2023-02-26T07:45:50.852Z,99948.72
2023-02-26T07:48:18.634Z,99941.78
2023-02-26T07:50:46.359Z,99944.53
2023-02-26T07:53:14.044Z,99946.72
2023-02-26T07:55:41.694Z,99954.19
2023-02-26T07:58:09.306Z,99955.25
2023-02-26T08:00:36.980Z,99957.69
2023-02-26T08:03:05.982Z,99968.09
2023-02-26T08:05:33.617Z,99963.47
2023-02-26T08:08:02.065Z,99961.25
2023-02-26T08:10:30.046Z,99961.53
2023-02-26T08:12:57.805Z,99966.84
2023-02-26T08:15:25.609Z,99965.16
2023-02-26T08:17:53.472Z,99958.34
2023-02-26T08:20:22.521Z,99958.03
2023-02-26T08:22:51.897Z,99955.59
2023-02-26T08:25:19.823Z,99966.94
2023-02-26T08:27:47.539Z,99964.69
2023-02-26T08:30:15.430Z,99968.69
2023-02-26T08:32:43.810Z,99968.63
2023-02-26T08:35:11.667Z,99968.38
2023-02-26T08:37:40.778Z,99958.34
2023-02-26T08:40:10.691Z,99964.72
2023-02-26T08:42:38.961Z,99972.38
2023-02-26T08:45:08.182Z,99976.38
2023-02-26T08:47:39.528Z,99972.53
2023-02-26T08:50:11.970Z,99974.47
2023-02-26T08:52:41.105Z,99981.94
2023-02-26T08:55:09.585Z,99994.25
2023-02-26T08:57:37.288Z,99987.41
2023-02-26T09:00:10.507Z,99988.50
2023-02-26T09:02:38.588Z,99993.78
2023-02-26T09:05:06.986Z,100002.03
2023-02-26T09:07:34.788Z,100012.31
2023-02-26T09:10:03.849Z,100007.00
2023-02-26T09:12:31.546Z,100007.81
2023-02-26T09:15:00.260Z,100004.00
2023-02-26T09:17:30.014Z,100025.81
2023-02-26T09:19:57.776Z,100025.84
2023-02-26T09:22:25.870Z,100036.06
2023-02-26T09:24:53.697Z,100025.03
2023-02-26T09:27:23.154Z,100029.53
2023-02-26T09:29:50.822Z,100036.84
2023-02-26T09:32:18.658Z,100036.19
2023-02-26T09:34:46.410Z,100057.31
2023-02-26T09:37:14.117Z,100039.09
2023-02-26T09:39:41.796Z,100046.59
2023-02-26T09:42:17.925Z,100047.69
2023-02-26T09:44:48.547Z,100049.63
2023-02-26T09:47:19.754Z,100045.91
2023-02-26T09:49:55.557Z,100049.75
2023-02-26T09:52:27.433Z,100046.28
2023-02-26T09:54:59.558Z,100040.53
2023-02-26T09:57:33.332Z,100053.47
2023-02-26T10:00:04.426Z,100014.50
2023-02-26T10:02:46.723Z,100047.66
2023-02-26T10:05:21.221Z,100067.47
2023-02-26T10:07:58.632Z,100058.34
2023-02-26T10:10:36.019Z,100063.63
2023-02-26T10:13:04.125Z,100064.50
2023-02-26T10:15:38.564Z,100073.41
2023-02-26T10:18:10.874Z,100060.78
2023-02-26T10:20:44.981Z,100069.75
2023-02-26T10:23:21.686Z,100069.44
2023-02-26T10:25:53.948Z,100066.38
2023-02-26T10:28:40.402Z,100066.38
2023-02-26T10:31:19.261Z,100083.91
2023-02-26T10:33:54.667Z,100085.88
2023-02-26T10:36:26.895Z,100083.81
2023-02-26T10:39:01.962Z,100088.56
2023-02-26T10:41:32.505Z,100078.38
2023-02-26T10:44:07.251Z,100090.47
2023-02-26T10:46:49.176Z,100091.47
2023-02-26T10:49:43.327Z,100098.47
2023-02-26T10:52:15.894Z,100097.13
2023-02-26T10:54:52.214Z,100101.88
2023-02-26T10:57:25.343Z,100091.63
2023-02-26T10:59:53.021Z,100088.25
2023-02-26T11:02:35.948Z,100084.94
2023-02-26T11:05:07.851Z,100087.78
2023-02-26T11:07:38.732Z,100073.47
2023-02-26T11:10:16.671Z,100074.13
2023-02-26T11:12:45.068Z,100080.56
2023-02-26T11:15:15.563Z,100081.59
2023-02-26T11:17:46.414Z,100088.78
2023-02-26T11:20:18.910Z,100097.63
2023-02-26T11:22:50.098Z,100084.03
2023-02-26T11:25:23.449Z,100100.13
2023-02-26T11:28:00.501Z,100103.81
2023-02-26T11:30:31.857Z,100105.25
2023-02-26T11:33:14.711Z,100103.84
2023-02-26T11:35:42.713Z,100114.53
2023-02-26T11:38:19.257Z,100110.16
2023-02-26T11:40:49.663Z,100086.69
2023-02-26T11:43:20.435Z,100108.75
2023-02-26T11:45:52.376Z,100112.53
2023-02-26T11:48:25.454Z,100110.44
2023-02-26T11:50:57.788Z,100110.31
2023-02-26T11:53:28.677Z,100116.72
2023-02-26T11:56:01.855Z,100111.75
2023-02-26T11:58:35.225Z,100128.28
2023-02-26T12:01:04.659Z,100114.81
2023-02-26T12:03:40.003Z,100109.84
2023-02-26T12:06:09.123Z,100114.44
2023-02-26T12:08:39.613Z,100124.56
2023-02-26T12:11:18.471Z,100116.25
2023-02-26T12:14:03.650Z,100107.84
2023-02-26T12:16:39.554Z,100120.97
2023-02-26T12:19:17.548Z,100123.00
2023-02-26T12:22:06.970Z,100110.84
2023-02-26T12:25:05.003Z,100113.78
2023-02-26T12:27:42.765Z,100098.00
2023-02-26T12:30:25.663Z,100105.34
2023-02-26T12:33:09.173Z,100100.09
2023-02-26T12:36:02.020Z,100100.19
2023-02-26T12:38:31.464Z,100094.03
2023-02-26T12:41:21.656Z,100111.22
2023-02-26T12:43:51.988Z,100104.75
2023-02-26T12:46:42.037Z,100113.34
2023-02-26T12:49:37.496Z,100099.69
2023-02-26T12:52:25.737Z,100115.16
2023-02-26T12:55:07.298Z,100106.72
2023-02-26T12:58:20.873Z,100105.25
2023-02-26T13:01:05.005Z,100112.41
2023-02-26T13:03:49.596Z,100112.97
2023-02-26T13:06:44.909Z,100109.38
2023-02-26T13:09:25.856Z,100110.13
2023-02-26T13:12:03.715Z,100110.84
2023-02-26T13:14:43.290Z,100108.31
2023-02-26T13:17:19.809Z,100127.94
2023-02-26T13:19:51.443Z,100112.31
2023-02-26T13:22:23.578Z,100121.75
2023-02-26T13:24:58.289Z,100080.44
2023-02-26T13:27:30.245Z,100109.00
2023-02-26T13:30:11.178Z,100118.91
2023-02-26T13:32:40.309Z,100114.88
2023-02-26T13:35:18.207Z,100110.84
2023-02-26T13:37:48.983Z,100130.66
2023-02-26T13:40:40.026Z,100134.50
2023-02-26T13:43:19.640Z,100128.16
2023-02-26T13:45:56.565Z,100135.41
2023-02-26T13:48:34.661Z,100138.38
2023-02-26T13:51:08.842Z,100143.13
2023-02-26T13:53:56.261Z,100147.03
2023-02-26T13:56:48.212Z,100163.94
2023-02-26T13:59:39.122Z,100157.94
2023-02-26T14:02:51.873Z,100153.09
2023-02-26T14:05:33.237Z,100157.16
2023-02-26T14:08:44.659Z,100159.53
2023-02-26T14:11:48.654Z,100164.06
2023-02-26T14:14:26.153Z,100151.63
2023-02-26T14:17:29.602Z,100157.69
2023-02-26T14:20:24.399Z,100168.03
2023-02-26T14:22:59.339Z,100163.25
2023-02-26T14:25:34.825Z,100079.53
2023-02-26T14:28:35.083Z,100165.13
2023-02-26T14:31:13.863Z,100183.06
2023-02-26T14:33:46.300Z,100180.25
2023-02-26T14:36:20.950Z,100181.19
2023-02-26T14:38:49.771Z,100192.63
2023-02-26T14:41:28.784Z,100187.81
2023-02-26T14:44:01.549Z,100180.47
2023-02-26T14:46:30.715Z,100185.16
2023-02-26T14:49:00.263Z,100181.72
2023-02-26T14:51:39.639Z,100177.84
2023-02-26T14:54:23.472Z,100188.03
2023-02-26T14:57:02.420Z,100191.72
2023-02-26T14:59:41.627Z,100177.75
2023-02-26T15:02:24.577Z,100181.16
2023-02-26T15:05:24.940Z,100181.09
2023-02-26T15:08:13.617Z,100181.56
2023-02-26T15:10:56.953Z,100189.31
2023-02-26T15:13:40.006Z,100189.06
2023-02-26T15:16:19.342Z,100191.16
2023-02-26T15:19:21.234Z,100196.63
2023-02-26T15:22:02.509Z,100196.13
2023-02-26T15:24:31.620Z,100206.72
2023-02-26T15:27:02.404Z,100204.25
2023-02-26T15:29:32.516Z,100206.25
2023-02-26T15:32:05.942Z,100199.69
2023-02-26T15:34:34.290Z,100207.88
2023-02-26T15:37:03.305Z,100206.31
2023-02-26T15:39:30.884Z,100217.25
2023-02-26T15:41:58.576Z,100222.69
2023-02-26T15:44:31.327Z,100206.47
2023-02-26T15:47:02.166Z,100220.91
2023-02-26T15:49:34.199Z,100216.03
2023-02-26T15:52:04.955Z,100222.84
2023-02-26T15:54:36.554Z,100219.22
2023-02-26T15:57:05.028Z,100221.78
2023-02-26T15:59:34.929Z,100215.97
2023-02-26T16:02:04.354Z,100218.03
2023-02-26T16:04:32.074Z,100219.81
2023-02-26T16:07:00.197Z,100214.59
2023-02-26T16:09:33.231Z,100221.03
2023-02-26T16:12:05.250Z,100211.09
2023-02-26T16:14:37.801Z,100225.81
2023-02-26T16:17:07.613Z,100222.47
2023-02-26T16:19:41.444Z,100225.03
2023-02-26T16:22:20.735Z,100230.13
2023-02-26T16:24:59.356Z,100225.50
2023-02-26T16:27:29.589Z,100208.06
2023-02-26T16:30:00.077Z,100232.63
2023-02-26T16:32:30.689Z,100236.47
2023-02-26T16:35:01.359Z,100236.13
2023-02-26T16:37:34.382Z,100240.16
2023-02-26T16:40:17.470Z,100158.53
2023-02-26T16:42:47.594Z,100250.44
2023-02-26T16:45:23.352Z,100268.84
2023-02-26T16:47:54.223Z,100259.44
2023-02-26T16:50:25.500Z,100264.50
2023-02-26T16:53:00.700Z,100274.63
2023-02-26T16:55:32.118Z,100264.88
2023-02-26T16:58:02.645Z,100270.75
2023-02-26T17:00:31.792Z,100279.41
2023-02-26T17:03:05.308Z,100286.28
2023-02-26T17:05:36.448Z,100281.63
2023-02-26T17:08:09.683Z,100298.72
2023-02-26T17:10:46.318Z,100298.25
2023-02-26T17:13:16.791Z,100284.63
2023-02-26T17:15:46.658Z,100311.59
2023-02-26T17:18:14.736Z,100305.47
2023-02-26T17:20:43.750Z,100313.25
2023-02-26T17:23:15.356Z,100311.06
2023-02-26T17:25:47.116Z,100317.19
2023-02-26T17:28:19.919Z,100324.22
2023-02-26T17:30:47.525Z,100321.97
2023-02-26T17:33:15.654Z,100325.25
2023-02-26T17:35:44.315Z,100335.19
2023-02-26T17:38:13.331Z,100346.44
2023-02-26T17:40:42.856Z,100344.00
2023-02-26T17:43:12.195Z,100361.38
2023-02-26T17:45:41.142Z,100351.66
2023-02-26T17:48:09.381Z,100358.22
2023-02-26T17:50:44.216Z,100362.66
2023-02-26T17:53:11.996Z,100363.72
2023-02-26T17:55:40.790Z,100368.91
2023-02-26T17:58:15.186Z,100320.91
2023-02-26T18:00:49.460Z,100376.28
2023-02-26T18:03:17.456Z,100375.59
2023-02-26T18:05:45.241Z,100380.47
2023-02-26T18:08:20.044Z,100380.66
2023-02-26T18:10:47.886Z,100397.13
2023-02-26T18:13:15.840Z,100390.47
2023-02-26T18:15:44.831Z,100394.63
2023-02-26T18:18:13.570Z,100320.00
2023-02-26T18:20:41.780Z,100395.66
2023-02-26T18:23:13.556Z,100391.59
2023-02-26T18:25:42.688Z,100403.56
2023-02-26T18:28:14.424Z,100396.09
2023-02-26T18:30:44.100Z,100403.22
2023-02-26T18:33:16.824Z,100412.88
2023-02-26T18:35:47.066Z,100414.78
2023-02-26T18:38:15.753Z,100420.19
2023-02-26T18:40:44.196Z,100423.47
2023-02-26T18:43:12.621Z,100417.94
2023-02-26T18:45:40.700Z,100422.06
2023-02-26T18:48:09.150Z,100428.81
2023-02-26T18:50:39.608Z,100430.28
2023-02-26T18:53:07.476Z,100435.63
2023-02-26T18:55:37.086Z,100435.84
2023-02-26T18:58:05.891Z,100434.84
2023-02-26T19:00:33.791Z,100427.47
2023-02-26T19:03:02.189Z,100437.00
2023-02-26T19:05:29.948Z,100444.31
2023-02-26T19:07:59.687Z,100443.59
2023-02-26T19:10:29.410Z,100447.50
2023-02-26T19:12:57.221Z,100448.47
2023-02-26T19:15:25.216Z,100459.31
2023-02-26T19:17:53.308Z,100459.91
2023-02-26T19:20:21.450Z,100457.28
2023-02-26T19:22:49.384Z,100459.47
2023-02-26T19:25:23.625Z,100463.81
2023-02-26T19:27:53.377Z,100461.03
2023-02-26T19:30:21.773Z,100430.44
2023-02-26T19:32:49.879Z,100463.72
2023-02-26T19:35:18.148Z,100462.50
2023-02-26T19:37:45.961Z,100457.97
2023-02-26T19:40:16.579Z,100470.16
2023-02-26T19:42:45.631Z,100469.09
2023-02-26T19:45:13.863Z,100471.81
2023-02-26T19:47:42.201Z,100465.81
2023-02-26T19:50:11.509Z,100472.31
2023-02-26T19:52:39.265Z,100475.25
2023-02-26T19:55:09.316Z,100476.66
2023-02-26T19:57:38.052Z,100478.28
2023-02-26T20:00:08.389Z,100484.03
2023-02-26T20:02:45.846Z,100381.72
2023-02-26T20:05:16.960Z,100481.34
2023-02-26T20:07:45.594Z,100476.16
2023-02-26T20:10:15.525Z,100478.63
2023-02-26T20:12:43.853Z,100481.16
2023-02-26T20:15:13.930Z,100473.47
2023-02-26T20:17:41.707Z,100488.09
2023-02-26T20:20:10.916Z,100499.56
2023-02-26T20:22:39.149Z,100492.00
2023-02-26T20:25:07.613Z,100490.94
2023-02-26T20:27:36.287Z,100495.69
2023-02-26T20:30:04.947Z,100497.50
2023-02-26T20:32:34.233Z,100499.25
2023-02-26T20:35:01.950Z,100501.59
2023-02-26T20:37:29.877Z,100508.69
2023-02-26T20:39:57.696Z,100511.97
2023-02-26T20:42:25.513Z,100509.91
2023-02-26T20:44:53.156Z,100504.59
2023-02-26T20:47:21.593Z,100509.41
2023-02-26T20:49:50.650Z,100504.38
2023-02-26T20:52:18.588Z,100507.00
2023-02-26T20:54:46.215Z,100509.84
2023-02-26T20:57:13.940Z,100498.31
2023-02-26T20:59:41.593Z,100513.13
2023-02-26T21:02:12.146Z,100513.94
2023-02-26T21:04:39.826Z,100513.22
2023-02-26T21:07:21.749Z,100518.91
2023-02-26T21:09:49.997Z,100515.31
2023-02-26T21:12:17.837Z,100517.09
2023-02-26T21:14:45.803Z,100520.38
2023-02-26T21:17:13.598Z,100519.53
2023-02-26T21:19:41.752Z,100523.22
2023-02-26T21:22:10.958Z,100522.19
2023-02-26T21:24:38.667Z,100528.66
2023-02-26T21:27:06.295Z,100521.69
2023-02-26T21:29:34.046Z,100523.66
2023-02-26T21:32:03.501Z,100527.13
2023-02-26T21:34:34.213Z,100532.06
2023-02-26T21:37:02.457Z,100537.41
2023-02-26T21:39:32.407Z,100536.53
2023-02-26T21:42:00.807Z,100535.63
2023-02-26T21:44:28.662Z,100543.97
2023-02-26T21:46:57.304Z,100534.25
2023-02-26T21:49:25.289Z,100546.56
2023-02-26T21:51:53.614Z,100540.16
2023-02-26T21:54:21.326Z,100534.84
2023-02-26T21:56:50.275Z,100529.56
2023-02-26T21:59:18.069Z,100535.41
2023-02-26T22:01:45.927Z,100528.91
2023-02-26T22:04:14.839Z,100534.56
2023-02-26T22:06:42.549Z,100533.09
2023-02-26T22:09:10.228Z,100532.19
2023-02-26T22:11:37.976Z,100540.75
2023-02-26T22:14:07.040Z,100493.22
2023-02-26T22:16:34.734Z,100531.16
2023-02-26T22:19:02.487Z,100527.59
2023-02-26T22:21:30.323Z,100532.06
2023-02-26T22:24:00.202Z,100532.53
2023-02-26T22:26:27.784Z,100537.00
2023-02-26T22:28:57.178Z,100536.84
2023-02-26T22:31:26.448Z,100532.59
2023-02-26T22:33:54.356Z,100542.91
2023-02-26T22:36:22.116Z,100522.53
2023-02-26T22:38:49.837Z,100538.16
2023-02-26T22:41:17.565Z,100538.84
2023-02-26T22:43:45.263Z,100533.19
2023-02-26T22:46:13.076Z,100530.22
2023-02-26T22:48:42.069Z,100541.97
2023-02-26T22:51:10.101Z,100533.28
2023-02-26T22:53:37.744Z,100542.44
2023-02-26T22:56:05.719Z,100545.41
2023-02-26T22:58:33.457Z,100534.03
2023-02-26T23:01:01.782Z,100528.66
2023-02-26T23:03:30.154Z,100533.56
2023-02-26T23:05:59.881Z,100533.28
2023-02-26T23:08:28.314Z,100520.50
2023-02-26T23:10:56.978Z,100542.25
2023-02-26T23:13:25.097Z,100537.81
2023-02-26T23:15:53.023Z,100537.91
2023-02-26T23:18:20.844Z,100532.94
2023-02-26T23:20:49.833Z,100533.75
2023-02-26T23:23:19.046Z,100546.72
2023-02-26T23:25:47.194Z,100536.38
2023-02-26T23:28:15.003Z,100544.09
2023-02-26T23:30:42.916Z,100550.66
2023-02-26T23:33:10.803Z,100548.25
2023-02-26T23:35:38.498Z,100536.38
2023-02-26T23:38:06.827Z,100543.22
2023-02-26T23:40:35.832Z,100545.34
2023-02-26T23:43:03.778Z,100547.56
2023-02-26T23:45:31.451Z,100543.28
2023-02-26T23:47:59.210Z,100555.28
2023-02-26T23:50:27.053Z,100551.91
2023-02-26T23:52:54.823Z,100546.09
2023-02-26T23:55:22.498Z,100549.72
2023-02-26T23:57:51.957Z,100547.59
